Home > Products > Valid Products > SSM

000
SMZS01 NSTU 291156
SSMPPG
AAXX 29124
91765 32466 81012 10277 20251 30122 40125 56017 8587/ 333 10309
56299 59009 70051 555 92912=




000
SMZS01 NSTU 290559
SSMPPG
AAXX 29064
91765 32466 71013 10279 20250 30129 40132 52010 86870 333 5629/
70056 555 92906=




000
SMZS01 NSTU 290559
SSMPPG
AAXX 29064
91765 32466 71013 10279 20250 30129 40132 52010 86870 333 5629/
70056 555 92906=




000
SMZS01 NSTU 282355
SSMPPG
AAXX 29004
91765 11469 71114 10297 20259 30130 40134 57019 60074 70282 85870
333 20252 5629/ 58007 70066 555 92900=




000
SMZS01 NSTU 282355
SSMPPG
AAXX 29004
91765 11469 71114 10297 20259 30130 40134 57019 60074 70282 85870
333 20252 5629/ 58007 70066 555 92900=




000
SMZS01 NSTU 281754
SSMPPG
AAXX 28184
91765 11469 60915 10252 20237 30142 40146 51015 60051 70282 84320
333 5629/ 70066 555 92818=




000
SMZS01 NSTU 281156
SSMPPG
AAXX 28124
91765 11461 71307 10264 20246 30130 40134 57007 69951 78082 84120
333 10306 5639/ 58007 70071 555 92812=




000
SMZS01 NSTU 281156
SSMPPG
AAXX 28124
91765 11461 71307 10264 20246 30130 40134 57007 69951 78082 84120
333 10306 5639/ 58007 70071 555 92812=




000
SMZS01 NSTU 280559
SSMPPG
AAXX 28064
91765 11466 69906 10271 20250 30122 40125 52012 60011 72598 83171
333 56999 70066 555 92806=




000
SMZS01 NSTU 280559
SSMPPG
AAXX 28064
91765 11466 69906 10271 20250 30122 40125 52012 60011 72598 83171
333 56999 70066 555 92806=




000
SMZS01 NSTU 272358
SSMPPG
AAXX 28004
91765 11469 60813 10306 20260 30124 40127 57017 60064 70282 85870
333 20259 5629/ 58000 70056 555 92800=




000
SMZS01 NSTU 272358
SSMPPG
AAXX 28004
91765 11469 60813 10306 20260 30124 40127 57017 60064 70282 85870
333 20259 5629/ 58000 70056 555 92800=




000
SMZS01 NSTU 271800
SSMPPG
AAXX 27184
91765 11/58 91215 10259 20242 30129 40132 52012 60051 78181 333
70051 555 92718=




000
SMZS01 NSTU 271800
SSMPPG
AAXX 27184
91765 11/58 91215 10259 20242 30129 40132 52012 60051 78181 333
70051 555 92718=




000
SMZS01 NSTU 271159
SSMPPG
AAXX 27124
91765 32566 31111 10269 20228 30124 40127 57014 82140 333 10311
5629/ 59005 555 92712=




000
SMZS01 NSTU 271159
SSMPPG
AAXX 27124
91765 32566 31111 10269 20228 30124 40127 57014 82140 333 10311
5629/ 59005 555 92712=




000
SMZS01 NSTU 270557
SSMPPG
AAXX 27064
91765 32566 21010 10274 20230 30124 40127 51020 82100 333 562//
70000 555 92706=




000
SMZS01 NSTU 262358
SSMPPG
AAXX 27004
91765 12569 40917 10308 20247 30124 40127 57010 69934 84100 333
20269 562// 59012 70003 555 92700=




000
SMZS01 NSTU 261915
SSMPPG
AAXX 26184
91765 32569 40915 10270 20237 30125 40129 52008 84100 333 562//
70003 555 92618=




    US Dept of Commerce
    National Oceanic and Atmospheric Administration
    National Weather Service
    1325 East West Highway
    Silver Spring, MD 20910
    Page Author: NWS Internet Services Team
Disclaimer
Information Quality
Credits
Glossary
Privacy Policy
Freedom of Information Act (FOIA)
About Us
Career Opportunities